Time;durP1;ratioP1;P1;durP2;ratioP2;P2;SDS_P1;SDS_P2;PMS_P1;PMS_P2;Temp;Humidity;BMP_temperature;BMP_pressure;BME280_temperature;BME280_humidity;BME280_pressure;Samples;Min_cycle;Max_cycle;Signal;HPM_P1;HPM_P2
2023/12/27 00:01:02;;;;;;;;;;;;;;;;;;5070718;28;19924;-71
2023/12/27 00:03:29;;;;;;;;;;;;;;;;;;5064876;28;20411;-72
2023/12/27 00:05:56;;;;;;;;;;;;;;;;;;5070937;28;20379;-72
2023/12/27 00:08:23;;;;;;;;;;;;;;;;;;5068630;28;19989;-72
2023/12/27 00:10:50;;;;;;;;;;;;;;;;;;5071618;28;19928;-71
2023/12/27 00:13:17;;;;;;;;;;;;;;;;;;5070944;28;19928;-71
2023/12/27 00:15:45;;;;;;;;;;;;;;;;;;5067726;28;19985;-71
2023/12/27 00:18:12;;;;;;;;;;;;;;;;;;5071520;28;19975;-71
2023/12/27 00:20:39;;;;;;;;;;;;;;;;;;5070727;28;19924;-71
2023/12/27 00:23:06;;;;;;;;;;;;;;;;;;5078954;28;19924;-72
2023/12/27 00:25:33;;;;;;;;;;;;;;;;;;5076643;28;20377;-72
2023/12/27 00:28:00;;;;;;;;;;;;;;;;;;5077746;28;19928;-72
2023/12/27 00:30:27;;;;;;;;;;;;;;;;;;5077699;28;20337;-72
2023/12/27 00:32:54;;;;;;;;;;;;;;;;;;5075379;28;19929;-72
2023/12/27 00:35:21;;;;;;;;;;;;;;;;;;5077000;28;19924;-73
2023/12/27 00:37:48;;;;;;;;;;;;;;;;;;5074603;28;19971;-72
2023/12/27 00:40:15;;;;;;;;;;;;;;;;;;5076008;28;19996;-71
2023/12/27 00:42:42;;;;;;;;;;;;;;;;;;5065359;28;19924;-70
2023/12/27 00:45:10;;;;;;;;;;;;;;;;;;5078319;28;19928;-71
2023/12/27 00:47:37;;;;;;;;;;;;;;;;;;5075937;28;19931;-70
2023/12/27 00:50:04;;;;;;;;;;;;;;;;;;5077305;28;19924;-71
2023/12/27 00:52:31;;;;;;;;;;;;;;;;;;5073565;28;20371;-70
2023/12/27 00:54:58;;;;;;;;;;;;;;;;;;5077160;28;19978;-70
2023/12/27 00:57:25;;;;;;;;;;;;;;;;;;5076796;28;20264;-72
2023/12/27 00:59:52;;;;;;;;;;;;;;;;;;5077070;28;19960;-72
2023/12/27 01:02:19;;;;;;;;;;;;;;;;;;5075864;28;19925;-71
2023/12/27 01:04:46;;;;;;;;;;;;;;;;;;5077402;28;19924;-72
2023/12/27 01:07:13;;;;;;;;;;;;;;;;;;5076691;28;19939;-72
2023/12/27 01:09:40;;;;;;;;;;;;;;;;;;5077232;28;19981;-72
2023/12/27 01:12:07;;;;;;;;;;;;;;;;;;5072594;28;19986;-71
2023/12/27 01:14:35;;;;;;;;;;;;;;;;;;5077337;28;19931;-72
2023/12/27 01:17:02;;;;;;;;;;;;;;;;;;5078442;28;19925;-72
2023/12/27 01:19:29;;;;;;;;;;;;;;;;;;5075149;28;19924;-72
2023/12/27 01:21:56;;;;;;;;;;;;;;;;;;5076373;28;19932;-72
2023/12/27 01:24:23;;;;;;;;;;;;;;;;;;5075926;28;20558;-72
2023/12/27 01:26:50;;;;;;;;;;;;;;;;;;5076591;28;19986;-72
2023/12/27 01:29:17;;;;;;;;;;;;;;;;;;5076582;28;19924;-71
2023/12/27 01:31:44;;;;;;;;;;;;;;;;;;5068937;28;19939;-71
2023/12/27 01:34:11;;;;;;;;;;;;;;;;;;5071482;28;19967;-71
2023/12/27 01:36:39;;;;;;;;;;;;;;;;;;5074590;28;19928;-72
2023/12/27 01:39:07;;;;;;;;;;;;;;;;;;5073553;28;19931;-72
2023/12/27 01:41:34;;;;;;;;;;;;;;;;;;5073999;28;19925;-72
2023/12/27 01:44:01;;;;;;;;;;;;;;;;;;5071818;28;19929;-72
2023/12/27 01:46:28;;;;;;;;;;;;;;;;;;5071229;28;19928;-71
2023/12/27 01:48:55;;;;;;;;;;;;;;;;;;5072154;28;20280;-72
2023/12/27 01:51:22;;;;;;;;;;;;;;;;;;5073123;28;19955;-71
2023/12/27 01:53:49;;;;;;;;;;;;;;;;;;5071660;28;19929;-71
2023/12/27 01:56:16;;;;;;;;;;;;;;;;;;5073876;28;19970;-71
2023/12/27 01:58:43;;;;;;;;;;;;;;;;;;5063978;28;19935;-71
2023/12/27 02:01:10;;;;;;;;;;;;;;;;;;5071553;28;20354;-71
2023/12/27 02:03:37;;;;;;;;;;;;;;;;;;5071553;28;19972;-71
2023/12/27 02:06:04;;;;;;;;;;;;;;;;;;5072724;28;19924;-71
2023/12/27 02:08:31;;;;;;;;;;;;;;;;;;5070536;28;19936;-71
2023/12/27 02:10:58;;;;;;;;;;;;;;;;;;5073367;28;19928;-71
2023/12/27 02:13:25;;;;;;;;;;;;;;;;;;5072347;28;19928;-72
2023/12/27 02:15:52;;;;;;;;;;;;;;;;;;5074117;28;19981;-70
2023/12/27 02:18:19;;;;;;;;;;;;;;;;;;5069881;28;20019;-71
2023/12/27 02:20:46;;;;;;;;;;;;;;;;;;5072250;28;19925;-71
2023/12/27 02:23:13;;;;;;;;;;;;;;;;;;5072216;28;19950;-71
2023/12/27 02:25:40;;;;;;;;;;;;;;;;;;5073283;28;19924;-71
2023/12/27 02:28:07;;;;;;;;;;;;;;;;;;5066697;28;20284;-70
2023/12/27 02:30:36;;;;;;;;;;;;;;;;;;5071140;28;19924;-71
2023/12/27 02:33:02;;;;;;;;;;;;;;;;;;5073005;28;19925;-71
2023/12/27 02:35:29;;;;;;;;;;;;;;;;;;5072578;28;20011;-71
2023/12/27 02:37:56;;;;;;;;;;;;;;;;;;5070617;28;20002;-70
2023/12/27 02:40:23;;;;;;;;;;;;;;;;;;5071285;28;19952;-71
2023/12/27 02:42:50;;;;;;;;;;;;;;;;;;5072561;28;20005;-70
2023/12/27 02:45:17;;;;;;;;;;;;;;;;;;5072439;28;19924;-71
2023/12/27 02:47:44;;;;;;;;;;;;;;;;;;5068848;28;20656;-70
2023/12/27 02:50:11;;;;;;;;;;;;;;;;;;5072423;28;19928;-70
2023/12/27 02:52:38;;;;;;;;;;;;;;;;;;5072766;28;19970;-70
2023/12/27 02:55:05;;;;;;;;;;;;;;;;;;5069905;28;19970;-71
2023/12/27 02:57:32;;;;;;;;;;;;;;;;;;5067846;28;19929;-71
2023/12/27 02:59:59;;;;;;;;;;;;;;;;;;5071315;28;19925;-70
2023/12/27 03:02:26;;;;;;;;;;;;;;;;;;5070948;28;19939;-71
2023/12/27 03:04:53;;;;;;;;;;;;;;;;;;5071674;28;20009;-71
2023/12/27 03:07:20;;;;;;;;;;;;;;;;;;5070223;28;20330;-73
2023/12/27 03:09:47;;;;;;;;;;;;;;;;;;5052501;28;19978;-71
2023/12/27 03:12:14;;;;;;;;;;;;;;;;;;5070109;28;19928;-71
2023/12/27 03:14:41;;;;;;;;;;;;;;;;;;5072024;28;19928;-71
2023/12/27 03:17:08;;;;;;;;;;;;;;;;;;5072379;28;19924;-72
2023/12/27 03:19:35;;;;;;;;;;;;;;;;;;5072155;28;19924;-71
2023/12/27 03:22:02;;;;;;;;;;;;;;;;;;5070280;28;19925;-71
2023/12/27 03:24:29;;;;;;;;;;;;;;;;;;5071853;28;20358;-71
2023/12/27 03:26:57;;;;;;;;;;;;;;;;;;5071736;28;19933;-71
2023/12/27 03:29:24;;;;;;;;;;;;;;;;;;5070542;28;19977;-71
2023/12/27 03:31:51;;;;;;;;;;;;;;;;;;5070976;28;19928;-71
2023/12/27 03:34:18;;;;;;;;;;;;;;;;;;5071140;28;19977;-71
2023/12/27 03:36:45;;;;;;;;;;;;;;;;;;5073087;28;19924;-72
2023/12/27 03:39:12;;;;;;;;;;;;;;;;;;5071324;28;20361;-71
2023/12/27 03:41:39;;;;;;;;;;;;;;;;;;5071212;28;19928;-71
2023/12/27 03:44:06;;;;;;;;;;;;;;;;;;5070697;28;19931;-71
2023/12/27 03:46:33;;;;;;;;;;;;;;;;;;5071820;28;19962;-72
2023/12/27 03:49:00;;;;;;;;;;;;;;;;;;5070933;28;19970;-71
2023/12/27 03:51:27;;;;;;;;;;;;;;;;;;5067687;28;20265;-71
2023/12/27 03:53:54;;;;;;;;;;;;;;;;;;5071888;28;19924;-71
2023/12/27 03:56:21;;;;;;;;;;;;;;;;;;5071050;28;19925;-71
2023/12/27 03:58:48;;;;;;;;;;;;;;;;;;5070000;28;19970;-71
2023/12/27 04:01:15;;;;;;;;;;;;;;;;;;5070115;28;20432;-71
2023/12/27 04:03:42;;;;;;;;;;;;;;;;;;5073092;28;19925;-71
2023/12/27 04:06:09;;;;;;;;;;;;;;;;;;5072255;28;19925;-71
2023/12/27 04:08:36;;;;;;;;;;;;;;;;;;5069477;28;19998;-72
2023/12/27 04:11:03;;;;;;;;;;;;;;;;;;5070874;28;19924;-72
2023/12/27 04:13:30;;;;;;;;;;;;;;;;;;5071177;28;19925;-71
2023/12/27 04:15:57;;;;;;;;;;;;;;;;;;5068839;28;19955;-71
2023/12/27 04:18:24;;;;;;;;;;;;;;;;;;5070557;28;19986;-71
2023/12/27 04:20:52;;;;;;;;;;;;;;;;;;5071032;28;20450;-71
2023/12/27 04:23:19;;;;;;;;;;;;;;;;;;5072078;28;19925;-71
2023/12/27 04:25:46;;;;;;;;;;;;;;;;;;5069391;28;20338;-71
2023/12/27 04:28:13;;;;;;;;;;;;;;;;;;5069483;28;20420;-70
2023/12/27 04:30:40;;;;;;;;;;;;;;;;;;5070599;28;19925;-70
2023/12/27 04:33:07;;;;;;;;;;;;;;;;;;5069706;28;19931;-70
2023/12/27 04:35:34;;;;;;;;;;;;;;;;;;5067305;28;19954;-69
2023/12/27 04:38:01;;;;;;;;;;;;;;;;;;5070159;28;19925;-70
2023/12/27 04:40:28;;;;;;;;;;;;;;;;;;5069313;28;19929;-70
2023/12/27 04:42:55;;;;;;;;;;;;;;;;;;5070008;28;19924;-71
2023/12/27 04:45:22;;;;;;;;;;;;;;;;;;5071849;28;20015;-71
2023/12/27 04:47:49;;;;;;;;;;;;;;;;;;5071418;28;19924;-71
2023/12/27 04:50:16;;;;;;;;;;;;;;;;;;5068744;28;19929;-72
2023/12/27 04:52:43;;;;;;;;;;;;;;;;;;5071360;28;20349;-72
2023/12/27 04:55:10;;;;;;;;;;;;;;;;;;5071553;28;19931;-72
2023/12/27 04:57:37;;;;;;;;;;;;;;;;;;5070497;28;20428;-72
2023/12/27 05:00:05;;;;;;;;;;;;;;;;;;5058551;28;19925;-72
2023/12/27 05:02:32;;;;;;;;;;;;;;;;;;5071117;28;20015;-72
2023/12/27 05:04:59;;;;;;;;;;;;;;;;;;5069689;28;19928;-72
2023/12/27 05:07:26;;;;;;;;;;;;;;;;;;5071510;28;19924;-72
2023/12/27 05:09:53;;;;;;;;;;;;;;;;;;5075056;28;20042;-72
2023/12/27 05:12:20;;;;;;;;;;;;;;;;;;5073442;28;19924;-71
2023/12/27 05:14:47;;;;;;;;;;;;;;;;;;5074106;28;19925;-71
2023/12/27 05:17:14;;;;;;;;;;;;;;;;;;5074210;28;19924;-71
2023/12/27 05:19:41;;;;;;;;;;;;;;;;;;5074354;28;20288;-71
2023/12/27 05:22:09;;;;;;;;;;;;;;;;;;5071693;28;20333;-71
2023/12/27 05:24:36;;;;;;;;;;;;;;;;;;5073081;28;20444;-71
2023/12/27 05:27:03;;;;;;;;;;;;;;;;;;5073188;28;19978;-71
2023/12/27 05:29:29;;;;;;;;;;;;;;;;;;5074436;28;19931;-71
2023/12/27 05:31:56;;;;;;;;;;;;;;;;;;5073291;28;19932;-71
2023/12/27 05:34:23;;;;;;;;;;;;;;;;;;5073619;28;19924;-71
2023/12/27 05:36:50;;;;;;;;;;;;;;;;;;5071553;28;19950;-72
2023/12/27 05:39:17;;;;;;;;;;;;;;;;;;5074473;28;19978;-71
2023/12/27 05:41:44;;;;;;;;;;;;;;;;;;5069045;28;19925;-72
2023/12/27 05:44:11;;;;;;;;;;;;;;;;;;5074348;28;19950;-71
2023/12/27 05:46:38;;;;;;;;;;;;;;;;;;5074619;28;19930;-72
2023/12/27 05:49:05;;;;;;;;;;;;;;;;;;5073783;28;19978;-71
2023/12/27 05:51:33;;;;;;;;;;;;;;;;;;5072951;28;19936;-72
2023/12/27 05:54:00;;;;;;;;;;;;;;;;;;5074341;28;19925;-72
2023/12/27 05:56:28;;;;;;;;;;;;;;;;;;5071692;28;19931;-72
2023/12/27 05:58:55;;;;;;;;;;;;;;;;;;5068243;28;20016;-72
2023/12/27 06:01:22;;;;;;;;;;;;;;;;;;5073936;28;19925;-72
2023/12/27 06:03:49;;;;;;;;;;;;;;;;;;5073618;28;19978;-71
2023/12/27 06:06:16;;;;;;;;;;;;;;;;;;5073233;28;19925;-71
2023/12/27 06:08:43;;;;;;;;;;;;;;;;;;5070189;28;20353;-72
2023/12/27 06:11:12;;;;;;;;;;;;;;;;;;5069710;28;20007;-71
2023/12/27 06:13:39;;;;;;;;;;;;;;;;;;5059742;28;19924;-72
2023/12/27 06:16:06;;;;;;;;;;;;;;;;;;5072437;28;20014;-72
2023/12/27 06:18:34;;;;;;;;;;;;;;;;;;5070767;28;20019;-71
2023/12/27 06:21:01;;;;;;;;;;;;;;;;;;5072051;28;20405;-72
2023/12/27 06:23:28;;;;;;;;;;;;;;;;;;5073677;28;20027;-71
2023/12/27 06:25:55;;;;;;;;;;;;;;;;;;5071507;28;20008;-71
2023/12/27 06:28:22;;;;;;;;;;;;;;;;;;5067637;28;19967;-71
2023/12/27 06:30:49;;;;;;;;;;;;;;;;;;5070246;28;19994;-71
2023/12/27 06:33:16;;;;;;;;;;;;;;;;;;5071405;28;19928;-72
2023/12/27 06:35:43;;;;;;;;;;;;;;;;;;5070992;28;20449;-72
2023/12/27 06:38:10;;;;;;;;;;;;;;;;;;5073413;28;19925;-72
2023/12/27 06:40:37;;;;;;;;;;;;;;;;;;5073269;28;20407;-72
2023/12/27 06:43:04;;;;;;;;;;;;;;;;;;5072647;28;19970;-72
2023/12/27 06:45:31;;;;;;;;;;;;;;;;;;5069774;28;19967;-72
2023/12/27 06:47:58;;;;;;;;;;;;;;;;;;5069231;28;20453;-72
2023/12/27 06:50:26;;;;;;;;;;;;;;;;;;5071039;28;19967;-73
2023/12/27 06:52:54;;;;;;;;;;;;;;;;;;5071809;28;19928;-73
2023/12/27 06:55:21;;;;;;;;;;;;;;;;;;5072497;28;19965;-72
2023/12/27 06:57:48;;;;;;;;;;;;;;;;;;5069867;28;19925;-73
2023/12/27 07:00:15;;;;;;;;;;;;;;;;;;5072269;28;20375;-71
2023/12/27 07:02:42;;;;;;;;;;;;;;;;;;5072291;28;19925;-72
2023/12/27 07:05:11;;;;;;;;;;;;;;;;;;5070708;28;20342;-71
2023/12/27 07:07:40;;;;;;;;;;;;;;;;;;5070003;28;20027;-71
2023/12/27 07:10:08;;;;;;;;;;;;;;;;;;5071251;28;20346;-71
2023/12/27 07:12:35;;;;;;;;;;;;;;;;;;5070997;28;20027;-72
2023/12/27 07:15:02;;;;;;;;;;;;;;;;;;5070378;28;20443;-71
2023/12/27 07:17:29;;;;;;;;;;;;;;;;;;5063791;28;19948;-72
2023/12/27 07:19:56;;;;;;;;;;;;;;;;;;5072241;28;19928;-72
2023/12/27 07:22:23;;;;;;;;;;;;;;;;;;5070745;28;19975;-71
2023/12/27 07:24:50;;;;;;;;;;;;;;;;;;5072265;28;19929;-72
2023/12/27 07:27:17;;;;;;;;;;;;;;;;;;5069659;28;19925;-70
2023/12/27 07:29:44;;;;;;;;;;;;;;;;;;5072167;28;19924;-71
2023/12/27 07:32:11;;;;;;;;;;;;;;;;;;5070290;28;19925;-70
2023/12/27 07:34:39;;;;;;;;;;;;;;;;;;5068920;28;19924;-71
2023/12/27 07:37:06;;;;;;;;;;;;;;;;;;5070301;28;19925;-71
2023/12/27 07:39:33;;;;;;;;;;;;;;;;;;5067396;28;19925;-71
2023/12/27 07:42:00;;;;;;;;;;;;;;;;;;5059558;28;20174;-70
2023/12/27 07:44:27;;;;;;;;;;;;;;;;;;5059528;28;19994;-70
2023/12/27 07:46:55;;;;;;;;;;;;;;;;;;5068258;28;19982;-71
2023/12/27 07:49:22;;;;;;;;;;;;;;;;;;5070399;28;19932;-70
2023/12/27 07:51:49;;;;;;;;;;;;;;;;;;5072339;28;19963;-71
2023/12/27 07:54:16;;;;;;;;;;;;;;;;;;5070361;28;19932;-70
2023/12/27 07:56:43;;;;;;;;;;;;;;;;;;5068129;28;20362;-71
2023/12/27 07:59:10;;;;;;;;;;;;;;;;;;5061332;28;20004;-70
2023/12/27 08:01:37;;;;;;;;;;;;;;;;;;5064808;28;19970;-70
2023/12/27 08:04:04;;;;;;;;;;;;;;;;;;5070794;28;19989;-70
2023/12/27 08:06:31;;;;;;;;;;;;;;;;;;5069650;28;19932;-70
2023/12/27 08:08:59;;;;;;;;;;;;;;;;;;5070319;28;20445;-70
2023/12/27 08:11:26;;;;;;;;;;;;;;;;;;5067858;28;19924;-70
2023/12/27 08:13:53;;;;;;;;;;;;;;;;;;5066661;28;19928;-70
2023/12/27 08:16:20;;;;;;;;;;;;;;;;;;5067086;28;19928;-71
2023/12/27 08:18:47;;;;;;;;;;;;;;;;;;5068949;28;20019;-71
2023/12/27 08:21:14;;;;;;;;;;;;;;;;;;5069537;28;19924;-72
2023/12/27 08:23:42;;;;;;;;;;;;;;;;;;5068120;28;19978;-71
2023/12/27 08:26:09;;;;;;;;;;;;;;;;;;5067088;28;19937;-72
2023/12/27 08:28:36;;;;;;;;;;;;;;;;;;5070864;28;19925;-71
2023/12/27 08:31:04;;;;;;;;;;;;;;;;;;5059957;28;19925;-74
2023/12/27 08:33:31;;;;;;;;;;;;;;;;;;5068511;28;19956;-70
2023/12/27 08:35:59;;;;;;;;;;;;;;;;;;5070298;28;19925;-71
2023/12/27 08:38:26;;;;;;;;;;;;;;;;;;5063654;28;19924;-70
2023/12/27 08:40:53;;;;;;;;;;;;;;;;;;5068624;28;19952;-74
2023/12/27 08:43:20;;;;;;;;;;;;;;;;;;5071872;28;20399;-71
2023/12/27 08:45:47;;;;;;;;;;;;;;;;;;5071908;28;19928;-71
2023/12/27 08:48:14;;;;;;;;;;;;;;;;;;5067891;28;19969;-71
2023/12/27 08:50:43;;;;;;;;;;;;;;;;;;5068178;28;19924;-71
2023/12/27 08:53:11;;;;;;;;;;;;;;;;;;5072213;28;19924;-70
2023/12/27 08:55:38;;;;;;;;;;;;;;;;;;5072224;28;19968;-70
2023/12/27 08:58:09;;;;;;;;;;;;;;;;;;5073118;28;19970;-71
2023/12/27 09:00:36;;;;;;;;;;;;;;;;;;5072947;28;19932;-71
2023/12/27 09:03:03;;;;;;;;;;;;;;;;;;5070645;28;19971;-70
2023/12/27 09:05:30;;;;;;;;;;;;;;;;;;5073342;28;19993;-73
2023/12/27 09:07:57;;;;;;;;;;;;;;;;;;5073625;28;19932;-73
2023/12/27 09:10:24;;;;;;;;;;;;;;;;;;5073704;28;20005;-70
2023/12/27 09:12:51;;;;;;;;;;;;;;;;;;5072603;28;19947;-70
2023/12/27 09:15:18;;;;;;;;;;;;;;;;;;5052787;28;19986;-71
2023/12/27 09:17:45;;;;;;;;;;;;;;;;;;5067880;28;20061;-70
2023/12/27 09:20:12;;;;;;;;;;;;;;;;;;5069723;28;19924;-72
2023/12/27 09:22:39;;;;;;;;;;;;;;;;;;5065110;28;19928;-71
2023/12/27 09:25:06;;;;;;;;;;;;;;;;;;5064987;28;19928;-72
2023/12/27 09:27:34;;;;;;;;;;;;;;;;;;5063932;28;19924;-71
2023/12/27 09:30:01;;;;;;;;;;;;;;;;;;5067707;28;19960;-71
2023/12/27 09:32:28;;;;;;;;;;;;;;;;;;5070589;28;19925;-72
2023/12/27 09:34:55;;;;;;;;;;;;;;;;;;5068499;28;19924;-71
2023/12/27 09:37:22;;;;;;;;;;;;;;;;;;5057857;28;19925;-71
2023/12/27 09:39:49;;;;;;;;;;;;;;;;;;5064582;28;19989;-71
2023/12/27 09:42:16;;;;;;;;;;;;;;;;;;5073202;28;20446;-72
2023/12/27 09:44:43;;;;;;;;;;;;;;;;;;5077704;28;20220;-70
2023/12/27 09:47:10;;;;;;;;;;;;;;;;;;5060440;28;19928;-69
2023/12/27 09:49:37;;;;;;;;;;;;;;;;;;5062639;28;19936;-71
2023/12/27 09:52:04;;;;;;;;;;;;;;;;;;5064744;28;20421;-71
2023/12/27 09:54:31;;;;;;;;;;;;;;;;;;5056342;28;19932;-71
2023/12/27 09:56:59;;;;;;;;;;;;;;;;;;5062124;28;19976;-70
2023/12/27 09:59:26;;;;;;;;;;;;;;;;;;5062566;28;19964;-71
2023/12/27 10:01:53;;;;;;;;;;;;;;;;;;5059865;28;19954;-71
2023/12/27 10:04:22;;;;;;;;;;;;;;;;;;5061225;28;19975;-71
2023/12/27 10:06:51;;;;;;;;;;;;;;;;;;5053731;22;19925;-70
2023/12/27 10:09:18;;;;;;;;;;;;;;;;;;5046135;28;19925;-71
2023/12/27 10:11:45;;;;;;;;;;;;;;;;;;5032521;28;20441;-72
2023/12/27 10:14:12;;;;;;;;;;;;;;;;;;5051681;28;19974;-71
2023/12/27 10:16:39;;;;;;;;;;;;;;;;;;5045511;28;20430;-70
2023/12/27 10:19:08;;;;;;;;;;;;;;;;;;5052656;28;19933;-71
2023/12/27 10:21:35;;;;;;;;;;;;;;;;;;5031042;28;19932;-69
2023/12/27 10:24:02;;;;;;;;;;;;;;;;;;5058775;22;19964;-70
2023/12/27 10:26:30;;;;;;;;;;;;;;;;;;5083044;28;20186;-72
2023/12/27 10:28:57;;;;;;;;;;;;;;;;;;5063485;28;19932;-70
2023/12/27 10:31:24;;;;;;;;;;;;;;;;;;5081274;28;19986;-71
2023/12/27 10:33:51;;;;;;;;;;;;;;;;;;5089186;28;19924;-69
2023/12/27 10:36:18;;;;;;;;;;;;;;;;;;5080740;28;20321;-70
2023/12/27 10:38:45;;;;;;;;;;;;;;;;;;5082932;28;19938;-69
2023/12/27 10:41:12;;;;;;;;;;;;;;;;;;5085413;28;19997;-69
2023/12/27 10:43:39;;;;;;;;;;;;;;;;;;5081081;28;20284;-69
2023/12/27 10:46:07;;;;;;;;;;;;;;;;;;5078461;28;19954;-70
2023/12/27 10:48:34;;;;;;;;;;;;;;;;;;5073200;28;20206;-70
2023/12/27 10:51:01;;;;;;;;;;;;;;;;;;5079224;28;19959;-68
2023/12/27 10:53:28;;;;;;;;;;;;;;;;;;5079269;28;19936;-70
2023/12/27 10:55:55;;;;;;;;;;;;;;;;;;5079571;28;19986;-69
2023/12/27 10:58:22;;;;;;;;;;;;;;;;;;5079031;28;20423;-69
2023/12/27 11:00:49;;;;;;;;;;;;;;;;;;5072662;28;19968;-70
2023/12/27 11:03:16;;;;;;;;;;;;;;;;;;5086321;28;19993;-70
2023/12/27 11:05:43;;;;;;;;;;;;;;;;;;5090861;28;19924;-71
2023/12/27 11:08:11;;;;;;;;;;;;;;;;;;5089301;28;19928;-72
2023/12/27 11:10:38;;;;;;;;;;;;;;;;;;5082117;28;19924;-73
2023/12/27 11:13:06;;;;;;;;;;;;;;;;;;5087942;28;19932;-73
2023/12/27 11:15:33;;;;;;;;;;;;;;;;;;5087960;28;19946;-73
2023/12/27 11:18:00;;;;;;;;;;;;;;;;;;5089084;28;19965;-73
2023/12/27 11:20:27;;;;;;;;;;;;;;;;;;5088864;28;19977;-73
2023/12/27 11:22:54;;;;;;;;;;;;;;;;;;5085786;28;19993;-73
2023/12/27 11:25:21;;;;;;;;;;;;;;;;;;5085391;28;19962;-73
2023/12/27 11:27:48;;;;;;;;;;;;;;;;;;5085502;28;19963;-73
2023/12/27 11:30:15;;;;;;;;;;;;;;;;;;5078761;28;19940;-71
2023/12/27 11:32:42;;;;;;;;;;;;;;;;;;5083613;28;19978;-71
2023/12/27 11:35:09;;;;;;;;;;;;;;;;;;5084505;28;19982;-72
2023/12/27 11:37:36;;;;;;;;;;;;;;;;;;5080133;28;19982;-71
2023/12/27 11:40:03;;;;;;;;;;;;;;;;;;5083971;28;19931;-73
2023/12/27 11:42:30;;;;;;;;;;;;;;;;;;5085489;28;19924;-72
2023/12/27 11:44:58;;;;;;;;;;;;;;;;;;5085352;28;19970;-72
2023/12/27 11:47:25;;;;;;;;;;;;;;;;;;5089774;28;19928;-73
2023/12/27 11:49:52;;;;;;;;;;;;;;;;;;5086835;28;19928;-72
2023/12/27 11:52:20;;;;;;;;;;;;;;;;;;5089529;28;19936;-72
2023/12/27 11:54:47;;;;;;;;;;;;;;;;;;5081417;28;19924;-73
2023/12/27 11:57:14;;;;;;;;;;;;;;;;;;5087126;28;19952;-73
2023/12/27 11:59:42;;;;;;;;;;;;;;;;;;5081377;28;19933;-74
2023/12/27 12:02:09;;;;;;;;;;;;;;;;;;5085280;28;19935;-73
2023/12/27 12:04:35;;;;;;;;;;;;;;;;;;5086844;28;19932;-74
2023/12/27 12:07:02;;;;;;;;;;;;;;;;;;5085901;28;19931;-71
2023/12/27 12:09:33;;;;;;;;;;;;;;;;;;5084389;28;19927;-72
2023/12/27 12:12:00;;;;;;;;;;;;;;;;;;5087986;28;19974;-73
2023/12/27 12:14:27;;;;;;;;;;;;;;;;;;5087629;28;19932;-72
2023/12/27 12:16:54;;;;;;;;;;;;;;;;;;5087249;28;20403;-74
2023/12/27 12:19:21;;;;;;;;;;;;;;;;;;5083657;28;20012;-73
2023/12/27 12:21:51;;;;;;;;;;;;;;;;;;5085176;28;19976;-73
2023/12/27 12:24:18;;;;;;;;;;;;;;;;;;5085447;28;19924;-72
2023/12/27 12:26:48;;;;;;;;;;;;;;;;;;5088095;28;19933;-72
2023/12/27 12:29:14;;;;;;;;;;;;;;;;;;5086461;28;19928;-72
2023/12/27 12:31:41;;;;;;;;;;;;;;;;;;5083311;28;20294;-71
2023/12/27 12:34:09;;;;;;;;;;;;;;;;;;5074993;28;20713;-72
2023/12/27 12:36:36;;;;;;;;;;;;;;;;;;5079762;28;19931;-71
2023/12/27 12:39:03;;;;;;;;;;;;;;;;;;5079185;28;19928;-73
2023/12/27 12:41:31;;;;;;;;;;;;;;;;;;5079370;28;19931;-72
2023/12/27 12:43:58;;;;;;;;;;;;;;;;;;5081752;28;20026;-72
2023/12/27 12:46:26;;;;;;;;;;;;;;;;;;5080275;28;19977;-73
2023/12/27 12:48:53;;;;;;;;;;;;;;;;;;5083896;28;19924;-72
2023/12/27 12:51:20;;;;;;;;;;;;;;;;;;5085405;28;19935;-73
2023/12/27 12:53:47;;;;;;;;;;;;;;;;;;5080581;28;20435;-75
2023/12/27 12:56:14;;;;;;;;;;;;;;;;;;5078278;28;19924;-81
2023/12/27 12:58:41;;;;;;;;;;;;;;;;;;5081904;28;19936;-79
2023/12/27 13:01:08;;;;;;;;;;;;;;;;;;5084960;28;19931;-78
2023/12/27 13:03:37;;;;;;;;;;;;;;;;;;5083156;28;19988;-75
2023/12/27 13:06:04;;;;;;;;;;;;;;;;;;5084757;28;19930;-75
2023/12/27 13:08:32;;;;;;;;;;;;;;;;;;5081179;28;19931;-79
2023/12/27 13:10:59;;;;;;;;;;;;;;;;;;5082862;28;19924;-77
2023/12/27 13:13:26;;;;;;;;;;;;;;;;;;5084809;28;20014;-77
2023/12/27 13:15:53;;;;;;;;;;;;;;;;;;5085727;28;19924;-79
2023/12/27 13:18:20;;;;;;;;;;;;;;;;;;5089499;28;20004;-76
2023/12/27 13:20:47;;;;;;;;;;;;;;;;;;5075722;28;20378;-78
2023/12/27 13:23:15;;;;;;;;;;;;;;;;;;5086608;28;19928;-76
2023/12/27 13:25:42;;;;;;;;;;;;;;;;;;5077702;28;19928;-72
2023/12/27 13:28:09;;;;;;;;;;;;;;;;;;5079929;28;19931;-75
2023/12/27 13:30:37;;;;;;;;;;;;;;;;;;5084583;28;19924;-72
2023/12/27 13:33:04;;;;;;;;;;;;;;;;;;5085987;28;19930;-68
2023/12/27 13:35:31;;;;;;;;;;;;;;;;;;5083431;28;19924;-67
2023/12/27 13:37:58;;;;;;;;;;;;;;;;;;5089013;28;19935;-68
2023/12/27 13:40:25;;;;;;;;;;;;;;;;;;5086555;28;19928;-68
2023/12/27 13:42:53;;;;;;;;;;;;;;;;;;5086645;28;20421;-69
2023/12/27 13:45:20;;;;;;;;;;;;;;;;;;5079657;28;19963;-68
2023/12/27 13:47:47;;;;;;;;;;;;;;;;;;5083501;28;19947;-68
2023/12/27 13:50:14;;;;;;;;;;;;;;;;;;5091053;28;19923;-68
2023/12/27 13:52:41;;;;;;;;;;;;;;;;;;5080869;28;19932;-68
2023/12/27 13:55:08;;;;;;;;;;;;;;;;;;5075601;28;19928;-68
2023/12/27 13:57:35;;;;;;;;;;;;;;;;;;5088486;28;20282;-68
2023/12/27 14:00:03;;;;;;;;;;;;;;;;;;5087912;28;19932;-69
2023/12/27 14:02:30;;;;;;;;;;;;;;;;;;5088532;28;19925;-68
2023/12/27 14:04:57;;;;;;;;;;;;;;;;;;5076118;22;19986;-68
2023/12/27 14:07:24;;;;;;;;;;;;;;;;;;5050692;28;19940;-69
2023/12/27 14:09:52;;;;;;;;;;;;;;;;;;5050619;28;19967;-69
2023/12/27 14:12:19;;;;;;;;;;;;;;;;;;5043780;28;19931;-69
2023/12/27 14:14:46;;;;;;;;;;;;;;;;;;5044134;28;19929;-69
2023/12/27 14:17:13;;;;;;;;;;;;;;;;;;5049400;28;19991;-68
2023/12/27 14:19:40;;;;;;;;;;;;;;;;;;5041382;28;19929;-68
2023/12/27 14:22:07;;;;;;;;;;;;;;;;;;5050243;28;19991;-68
2023/12/27 14:24:34;;;;;;;;;;;;;;;;;;5043922;28;19951;-68
2023/12/27 14:27:03;;;;;;;;;;;;;;;;;;5045492;28;19937;-68
2023/12/27 14:29:30;;;;;;;;;;;;;;;;;;5045342;28;20528;-68
2023/12/27 14:31:57;;;;;;;;;;;;;;;;;;5047138;28;20058;-68
2023/12/27 14:34:24;;;;;;;;;;;;;;;;;;5045681;28;20039;-68
2023/12/27 14:36:51;;;;;;;;;;;;;;;;;;5046292;28;19964;-68
2023/12/27 14:39:18;;;;;;;;;;;;;;;;;;5049157;28;19970;-66
2023/12/27 14:41:46;;;;;;;;;;;;;;;;;;5048439;28;20461;-67
2023/12/27 14:44:13;;;;;;;;;;;;;;;;;;5036907;28;19953;-67
2023/12/27 14:46:40;;;;;;;;;;;;;;;;;;5050359;28;19924;-67
2023/12/27 14:49:07;;;;;;;;;;;;;;;;;;5047820;28;19978;-67
2023/12/27 14:51:34;;;;;;;;;;;;;;;;;;5041970;28;20313;-68
2023/12/27 14:54:02;;;;;;;;;;;;;;;;;;5044130;28;20063;-68
2023/12/27 14:56:29;;;;;;;;;;;;;;;;;;5042323;28;19940;-68
2023/12/27 14:58:56;;;;;;;;;;;;;;;;;;5039351;28;19925;-68
2023/12/27 15:01:23;;;;;;;;;;;;;;;;;;5047903;28;19973;-68
2023/12/27 15:03:50;;;;;;;;;;;;;;;;;;5039275;28;19991;-68
2023/12/27 15:06:18;;;;;;;;;;;;;;;;;;5049022;28;20145;-69
2023/12/27 15:08:45;;;;;;;;;;;;;;;;;;5036649;28;19925;-70
2023/12/27 15:11:12;;;;;;;;;;;;;;;;;;5042061;28;19936;-69
2023/12/27 15:13:39;;;;;;;;;;;;;;;;;;5044998;28;19980;-70
2023/12/27 15:16:06;;;;;;;;;;;;;;;;;;5048521;28;19978;-71
2023/12/27 15:18:33;;;;;;;;;;;;;;;;;;5035721;28;19929;-70
2023/12/27 15:21:00;;;;;;;;;;;;;;;;;;5037496;28;20351;-71
2023/12/27 15:23:27;;;;;;;;;;;;;;;;;;5040481;28;19929;-70
2023/12/27 15:25:54;;;;;;;;;;;;;;;;;;5047646;28;20014;-71
2023/12/27 15:28:24;;;;;;;;;;;;;;;;;;5044653;28;19929;-70
2023/12/27 15:30:52;;;;;;;;;;;;;;;;;;5041422;28;19925;-70
2023/12/27 15:33:19;;;;;;;;;;;;;;;;;;5035887;28;19924;-71
2023/12/27 15:35:46;;;;;;;;;;;;;;;;;;5034992;28;19977;-69
2023/12/27 15:38:13;;;;;;;;;;;;;;;;;;5040156;28;19937;-72
2023/12/27 15:40:41;;;;;;;;;;;;;;;;;;5043887;28;19951;-71
2023/12/27 15:43:08;;;;;;;;;;;;;;;;;;5031343;28;19964;-70
2023/12/27 15:45:35;;;;;;;;;;;;;;;;;;5030764;28;20683;-71
2023/12/27 15:48:02;;;;;;;;;;;;;;;;;;5047597;28;19931;-70
2023/12/27 15:50:29;;;;;;;;;;;;;;;;;;5040378;28;19933;-71
2023/12/27 15:52:57;;;;;;;;;;;;;;;;;;5037013;28;19929;-70
2023/12/27 15:55:24;;;;;;;;;;;;;;;;;;5041675;28;19933;-71
2023/12/27 15:57:51;;;;;;;;;;;;;;;;;;5040367;28;19959;-71
2023/12/27 16:00:19;;;;;;;;;;;;;;;;;;5043390;28;19924;-72
2023/12/27 16:02:46;;;;;;;;;;;;;;;;;;5041294;28;19956;-71
2023/12/27 16:05:13;;;;;;;;;;;;;;;;;;5042033;28;19929;-72
2023/12/27 16:07:40;;;;;;;;;;;;;;;;;;5044352;28;19932;-72
2023/12/27 16:10:07;;;;;;;;;;;;;;;;;;5051106;28;19925;-71
2023/12/27 16:12:34;;;;;;;;;;;;;;;;;;5040167;28;19933;-70
2023/12/27 16:15:01;;;;;;;;;;;;;;;;;;5046894;28;19925;-71
2023/12/27 16:17:28;;;;;;;;;;;;;;;;;;5040928;28;19982;-69
2023/12/27 16:19:56;;;;;;;;;;;;;;;;;;5039721;28;19986;-72
2023/12/27 16:22:23;;;;;;;;;;;;;;;;;;5038901;28;20388;-72
2023/12/27 16:24:50;;;;;;;;;;;;;;;;;;5045286;28;20366;-72
2023/12/27 16:27:17;;;;;;;;;;;;;;;;;;5047501;28;19971;-72
2023/12/27 16:29:45;;;;;;;;;;;;;;;;;;5049663;28;19933;-72
2023/12/27 16:32:14;;;;;;;;;;;;;;;;;;5045727;28;19998;-72
2023/12/27 16:34:41;;;;;;;;;;;;;;;;;;5042668;28;19925;-72
2023/12/27 16:37:09;;;;;;;;;;;;;;;;;;5047417;28;19982;-72
2023/12/27 16:39:36;;;;;;;;;;;;;;;;;;5044791;28;20411;-73
2023/12/27 16:42:03;;;;;;;;;;;;;;;;;;5049298;28;19925;-70
2023/12/27 16:44:30;;;;;;;;;;;;;;;;;;5046719;28;20008;-71